createdAt,value
2023-01-05T00:01:40.019Z,96175.59
2023-01-05T00:04:08.695Z,96175.06
2023-01-05T00:06:37.817Z,96172.19
2023-01-05T00:09:06.712Z,96116.78
2023-01-05T00:11:52.548Z,96166.19
2023-01-05T00:14:41.346Z,96170.06
2023-01-05T00:17:30.231Z,96166.38
2023-01-05T00:20:16.195Z,96161.75
2023-01-05T00:22:47.656Z,96168.22
2023-01-05T00:25:18.264Z,96171.53
2023-01-05T00:27:50.798Z,96158.25
2023-01-05T00:30:22.335Z,96156.41
2023-01-05T00:32:51.403Z,96148.63
2023-01-05T00:35:20.280Z,96126.19
2023-01-05T00:37:49.468Z,96146.09
2023-01-05T00:40:19.900Z,96138.72
2023-01-05T00:42:48.789Z,96146.50
2023-01-05T00:45:19.139Z,96092.25
2023-01-05T00:47:49.218Z,96144.59
2023-01-05T00:50:19.362Z,96105.78
2023-01-05T00:52:47.970Z,96109.78
2023-01-05T00:55:16.755Z,96108.34
2023-01-05T00:57:45.524Z,96124.28
2023-01-05T01:00:17.513Z,96137.41
2023-01-05T01:02:46.403Z,96147.63
2023-01-05T01:05:16.274Z,96132.97
2023-01-05T01:07:44.601Z,96127.88
2023-01-05T01:10:13.585Z,96138.66
2023-01-05T01:12:44.756Z,96069.72
2023-01-05T01:15:13.140Z,96138.50
2023-01-05T01:17:41.499Z,96131.16
2023-01-05T01:20:11.155Z,96130.28
2023-01-05T01:22:40.885Z,96078.44
2023-01-05T01:25:09.879Z,96122.00
2023-01-05T01:27:38.179Z,96117.81
2023-01-05T01:30:07.612Z,96111.53
2023-01-05T01:32:35.915Z,96117.59
2023-01-05T01:35:04.287Z,96112.88
2023-01-05T01:37:32.739Z,96106.75
2023-01-05T01:40:02.506Z,96040.00
2023-01-05T01:42:31.582Z,96015.28
2023-01-05T01:45:01.688Z,96098.13
2023-01-05T01:47:36.379Z,96110.06
2023-01-05T01:50:09.878Z,96101.66
2023-01-05T01:52:39.719Z,96092.28
2023-01-05T01:55:10.599Z,96093.34
2023-01-05T01:57:40.157Z,96092.44
2023-01-05T02:00:10.624Z,96059.03
2023-01-05T02:02:38.911Z,96078.03
2023-01-05T02:05:10.468Z,96084.53
2023-01-05T02:07:41.638Z,96064.09
2023-01-05T02:10:12.103Z,96069.34
2023-01-05T02:12:58.951Z,96061.53
2023-01-05T02:15:39.342Z,96052.97
2023-01-05T02:18:21.767Z,96060.56
2023-01-05T02:21:05.408Z,96026.38
2023-01-05T02:23:59.460Z,96045.75
2023-01-05T02:27:11.637Z,96004.75
2023-01-05T02:30:16.766Z,96042.88
2023-01-05T02:32:53.450Z,96048.25
2023-01-05T02:35:28.881Z,95974.97
2023-01-05T02:38:03.578Z,96035.44
2023-01-05T02:40:37.892Z,96028.78
2023-01-05T02:43:07.862Z,96035.69
2023-01-05T02:45:36.115Z,96035.16
2023-01-05T02:48:06.177Z,96035.69
2023-01-05T02:50:39.984Z,96020.63
2023-01-05T02:53:11.075Z,96031.19
2023-01-05T02:55:43.380Z,96022.72
2023-01-05T02:58:17.439Z,96004.75
2023-01-05T03:00:52.273Z,96010.03
2023-01-05T03:03:26.696Z,96012.75
2023-01-05T03:05:59.149Z,96007.81
2023-01-05T03:08:33.082Z,95981.53
2023-01-05T03:11:21.994Z,96006.63
2023-01-05T03:13:56.278Z,96007.59
2023-01-05T03:16:29.492Z,96003.78
2023-01-05T03:19:20.709Z,96023.56
2023-01-05T03:22:08.608Z,96006.22
2023-01-05T03:24:55.446Z,95916.66
2023-01-05T03:27:42.570Z,96000.59
2023-01-05T03:30:30.096Z,96003.16
2023-01-05T03:33:22.848Z,96000.81
2023-01-05T03:35:56.398Z,95988.19
2023-01-05T03:38:31.385Z,95988.81
2023-01-05T03:41:04.927Z,95992.25
2023-01-05T03:43:36.159Z,95977.69
2023-01-05T03:46:11.535Z,95983.78
2023-01-05T03:48:39.987Z,95994.69
2023-01-05T03:51:10.461Z,95920.00
2023-01-05T03:53:38.716Z,95990.97
2023-01-05T03:56:07.465Z,95992.34
2023-01-05T03:58:35.782Z,95959.56
2023-01-05T04:01:04.460Z,95944.69
2023-01-05T04:03:32.902Z,95982.66
2023-01-05T04:06:01.817Z,95985.75
2023-01-05T04:08:31.739Z,95982.78
2023-01-05T04:11:11.981Z,95982.31
2023-01-05T04:13:40.257Z,95995.28
2023-01-05T04:16:09.247Z,95987.94
2023-01-05T04:18:37.662Z,95986.25
2023-01-05T04:21:06.943Z,95980.44
2023-01-05T04:23:37.113Z,95981.63
2023-01-05T04:26:06.187Z,95971.97
2023-01-05T04:28:34.703Z,95971.97
2023-01-05T04:31:03.176Z,95970.84
2023-01-05T04:33:31.587Z,95970.44
2023-01-05T04:35:59.891Z,95968.66
2023-01-05T04:38:28.163Z,95976.50
2023-01-05T04:40:57.761Z,95970.50
2023-01-05T04:43:26.086Z,95969.50
2023-01-05T04:45:54.447Z,95936.41
2023-01-05T04:48:22.668Z,95977.31
2023-01-05T04:50:54.648Z,95968.63
2023-01-05T04:53:23.636Z,95970.34
2023-01-05T04:55:54.473Z,95965.31
2023-01-05T04:58:24.133Z,95973.66
2023-01-05T05:00:52.465Z,95974.22
2023-01-05T05:03:20.780Z,95966.19
2023-01-05T05:05:49.085Z,95963.47
2023-01-05T05:08:17.401Z,95952.03
2023-01-05T05:10:45.720Z,95957.63
2023-01-05T05:13:14.042Z,95971.25
2023-01-05T05:15:46.378Z,95933.47
2023-01-05T05:18:14.805Z,95987.97
2023-01-05T05:20:45.163Z,95991.19
2023-01-05T05:23:13.480Z,95978.59
2023-01-05T05:25:41.824Z,95979.03
2023-01-05T05:28:10.369Z,95984.09
2023-01-05T05:30:39.275Z,95981.09
2023-01-05T05:33:09.039Z,95983.41
2023-01-05T05:35:37.372Z,95817.88
2023-01-05T05:38:05.774Z,95980.09
2023-01-05T05:40:34.117Z,95981.34
2023-01-05T05:43:02.371Z,95986.03
2023-01-05T05:45:30.709Z,95994.44
2023-01-05T05:48:01.288Z,95996.41
2023-01-05T05:50:31.053Z,95979.69
2023-01-05T05:52:59.251Z,95931.84
2023-01-05T05:55:27.550Z,95990.91
2023-01-05T05:57:55.908Z,95987.66
2023-01-05T06:00:24.331Z,95985.28
2023-01-05T06:02:52.788Z,95977.63
2023-01-05T06:05:21.230Z,95973.69
2023-01-05T06:07:50.965Z,95971.75
2023-01-05T06:10:19.277Z,95970.66
2023-01-05T06:12:47.925Z,95964.53
2023-01-05T06:15:16.512Z,95961.41
2023-01-05T06:17:46.592Z,95963.28
2023-01-05T06:20:14.875Z,95960.94
2023-01-05T06:22:43.240Z,95963.03
2023-01-05T06:25:12.986Z,95955.13
2023-01-05T06:27:41.269Z,95896.25
2023-01-05T06:30:10.541Z,95946.94
2023-01-05T06:32:38.982Z,95961.44
2023-01-05T06:35:08.373Z,95962.13
2023-01-05T06:37:36.835Z,95913.41
2023-01-05T06:40:05.634Z,95977.63
2023-01-05T06:42:35.347Z,95985.34
2023-01-05T06:45:03.742Z,95977.78
2023-01-05T06:47:32.057Z,95981.16
2023-01-05T06:50:00.464Z,95945.19
2023-01-05T06:52:29.211Z,95967.06
2023-01-05T06:54:57.519Z,95966.31
2023-01-05T06:57:25.770Z,95973.69
2023-01-05T06:59:55.403Z,95971.44
2023-01-05T07:02:26.078Z,95968.34
2023-01-05T07:04:54.351Z,95969.28
2023-01-05T07:07:22.626Z,95967.13
2023-01-05T07:09:50.905Z,95968.22
2023-01-05T07:12:19.802Z,95966.66
2023-01-05T07:14:50.638Z,95968.63
2023-01-05T07:17:24.070Z,95964.53
2023-01-05T07:19:52.318Z,95954.19
2023-01-05T07:22:20.706Z,95957.59
2023-01-05T07:24:48.996Z,95956.16
2023-01-05T07:27:17.317Z,95917.53
2023-01-05T07:29:45.560Z,95954.66
2023-01-05T07:32:13.990Z,95950.75
2023-01-05T07:34:51.289Z,95944.72
2023-01-05T07:37:25.047Z,95934.59
2023-01-05T07:39:53.654Z,95943.91
2023-01-05T07:42:21.838Z,95931.91
2023-01-05T07:44:50.210Z,95935.06
2023-01-05T07:47:18.508Z,95926.38
2023-01-05T07:49:48.238Z,95913.84
2023-01-05T07:52:17.257Z,95920.09
2023-01-05T07:54:45.558Z,95921.75
2023-01-05T07:57:13.812Z,95904.13
2023-01-05T07:59:42.185Z,95908.13
2023-01-05T08:02:11.390Z,95905.31
2023-01-05T08:04:39.824Z,95914.13
2023-01-05T08:07:11.697Z,95918.09
2023-01-05T08:09:57.594Z,95871.06
2023-01-05T08:12:25.932Z,95918.44
2023-01-05T08:14:54.207Z,95915.00
2023-01-05T08:17:22.524Z,95910.47
2023-01-05T08:19:50.861Z,95877.03
2023-01-05T08:22:20.525Z,95909.66
2023-01-05T08:24:48.830Z,95912.06
2023-01-05T08:27:17.067Z,95913.25
2023-01-05T08:29:45.348Z,95914.88
2023-01-05T08:32:13.724Z,95908.53
2023-01-05T08:34:42.049Z,95906.41
2023-01-05T08:37:10.493Z,95902.56
2023-01-05T08:39:40.191Z,95895.53
2023-01-05T08:42:08.542Z,95882.31
2023-01-05T08:44:36.878Z,95880.75
2023-01-05T08:47:06.486Z,95877.31
2023-01-05T08:49:34.810Z,95878.88
2023-01-05T08:52:03.129Z,95868.56
2023-01-05T08:54:31.487Z,95872.75
2023-01-05T08:57:01.184Z,95856.56
2023-01-05T08:59:29.681Z,95853.34
2023-01-05T09:01:58.233Z,95846.38
2023-01-05T09:04:27.703Z,95833.63
2023-01-05T09:06:56.425Z,95822.81
2023-01-05T09:09:25.458Z,95824.13
2023-01-05T09:11:53.769Z,95819.69
2023-01-05T09:14:23.695Z,95812.00
2023-01-05T09:17:08.224Z,95815.59
2023-01-05T09:19:37.351Z,95803.38
2023-01-05T09:22:05.829Z,95798.78
2023-01-05T09:24:34.076Z,95797.47
2023-01-05T09:27:03.897Z,95788.53
2023-01-05T09:29:33.588Z,95786.66
2023-01-05T09:32:01.959Z,95779.97
2023-01-05T09:34:30.626Z,95777.59
2023-01-05T09:36:58.980Z,95776.97
2023-01-05T09:39:27.458Z,95736.13
2023-01-05T09:41:59.123Z,95771.41
2023-01-05T09:44:31.714Z,95745.63
2023-01-05T09:47:07.862Z,95722.06
2023-01-05T09:49:36.740Z,95748.00
2023-01-05T09:52:09.512Z,95744.16
2023-01-05T09:54:39.104Z,95716.59
2023-01-05T09:57:14.777Z,95727.53
2023-01-05T09:59:46.456Z,95726.34
2023-01-05T10:02:33.956Z,95718.78
2023-01-05T10:05:05.391Z,95721.09
2023-01-05T10:07:43.395Z,95689.00
2023-01-05T10:10:28.327Z,95699.59
2023-01-05T10:13:07.273Z,95711.09
2023-01-05T10:15:43.601Z,95665.59
2023-01-05T10:18:16.368Z,95691.28
2023-01-05T10:21:04.446Z,95690.19
2023-01-05T10:23:49.648Z,95681.47
2023-01-05T10:26:26.279Z,95639.06
2023-01-05T10:29:01.258Z,95643.56
2023-01-05T10:31:45.224Z,95665.50
2023-01-05T10:34:22.489Z,95656.78
2023-01-05T10:37:09.406Z,95653.56
2023-01-05T10:40:00.550Z,95641.91
2023-01-05T10:42:45.479Z,95613.72
2023-01-05T10:45:16.019Z,95578.16
2023-01-05T10:47:46.432Z,95613.41
2023-01-05T10:50:36.879Z,95625.41
2023-01-05T10:53:10.785Z,95608.84
2023-01-05T10:55:46.918Z,95556.16
2023-01-05T10:58:26.178Z,95596.88
2023-01-05T11:00:57.011Z,95597.09
2023-01-05T11:04:23.837Z,95582.34
2023-01-05T11:06:31.592Z,95580.56
2023-01-05T11:09:08.553Z,95567.75
2023-01-05T11:11:37.010Z,95562.19
2023-01-05T11:14:07.105Z,95538.56
2023-01-05T11:16:38.533Z,95544.72
2023-01-05T11:19:14.178Z,95476.47
2023-01-05T11:21:46.068Z,95535.34
2023-01-05T11:24:32.446Z,95524.06
2023-01-05T11:27:03.382Z,95529.50
2023-01-05T11:29:32.126Z,95514.75
2023-01-05T11:32:02.609Z,95514.41
2023-01-05T11:34:43.520Z,95524.63
2023-01-05T11:37:26.279Z,95513.34
2023-01-05T11:39:56.984Z,95509.09
2023-01-05T11:42:33.608Z,95514.69
2023-01-05T11:45:05.062Z,95513.81
2023-01-05T11:47:43.757Z,95509.72
2023-01-05T11:50:22.692Z,95506.38
2023-01-05T11:52:54.166Z,95493.78
2023-01-05T11:55:35.195Z,95415.38
2023-01-05T11:58:19.261Z,95496.06
2023-01-05T12:01:34.240Z,95482.19
2023-01-05T12:04:11.726Z,95478.41
2023-01-05T12:06:58.209Z,95443.13
2023-01-05T12:09:34.997Z,95417.19
2023-01-05T12:12:40.882Z,95480.59
2023-01-05T12:15:43.210Z,95471.66
2023-01-05T12:18:34.063Z,95405.66
2023-01-05T12:21:09.103Z,95443.81
2023-01-05T12:24:07.228Z,95468.69
2023-01-05T12:26:43.938Z,95455.66
2023-01-05T12:36:09.394Z,95430.81
2023-01-05T12:38:46.349Z,95422.31
2023-01-05T12:41:35.713Z,95433.88
2023-01-05T12:44:24.635Z,95421.66
2023-01-05T12:47:08.299Z,95413.94
2023-01-05T12:49:42.017Z,95376.63
2023-01-05T12:52:17.615Z,95405.41
2023-01-05T12:54:53.237Z,95406.69
2023-01-05T12:57:28.513Z,95408.84
2023-01-05T13:00:05.127Z,95409.84
2023-01-05T13:02:40.310Z,95366.56
2023-01-05T13:05:15.208Z,95401.66
2023-01-05T13:07:50.946Z,95411.16
2023-01-05T13:10:24.062Z,95419.09
2023-01-05T13:13:02.577Z,95380.13
2023-01-05T13:15:40.429Z,95418.75
2023-01-05T13:18:16.241Z,95414.72
2023-01-05T13:20:48.324Z,95416.53
2023-01-05T13:23:20.117Z,95414.50
2023-01-05T13:25:55.421Z,95370.13
2023-01-05T13:28:28.403Z,95422.00
2023-01-05T13:31:22.671Z,95392.19
2023-01-05T13:34:09.933Z,95402.28
2023-01-05T13:36:53.587Z,95417.75
2023-01-05T13:40:06.792Z,95424.28
2023-01-05T13:42:59.889Z,95422.13
2023-01-05T13:46:12.658Z,95418.91
2023-01-05T13:49:12.173Z,95411.34
2023-01-05T13:52:00.015Z,95405.59
2023-01-05T13:54:49.177Z,95369.19
2023-01-05T13:57:26.251Z,95407.69
2023-01-05T14:00:06.502Z,95408.91
2023-01-05T14:02:39.071Z,95409.28
2023-01-05T14:05:16.930Z,95404.47
2023-01-05T14:07:45.370Z,95406.38
2023-01-05T14:10:22.955Z,95411.69
2023-01-05T14:12:54.328Z,95408.78
2023-01-05T14:15:38.227Z,95411.22
2023-01-05T14:18:07.193Z,95403.34
2023-01-05T14:20:47.007Z,95394.53
2023-01-05T14:24:07.443Z,95397.22
2023-01-05T14:27:00.866Z,95393.19
2023-01-05T14:30:02.555Z,95393.94
2023-01-05T14:32:33.916Z,95391.25
2023-01-05T14:35:09.614Z,95397.59
2023-01-05T14:37:41.792Z,95400.28
2023-01-05T14:40:26.348Z,95391.22
2023-01-05T14:42:55.281Z,95390.91
2023-01-05T14:45:28.250Z,95405.63
2023-01-05T14:47:58.800Z,95411.06
2023-01-05T14:50:31.382Z,95402.63
2023-01-05T14:53:04.771Z,95385.50
2023-01-05T14:55:39.578Z,95425.91
2023-01-05T14:58:14.429Z,95426.09
2023-01-05T15:00:49.605Z,95422.59
2023-01-05T15:03:28.235Z,95423.41
2023-01-05T15:06:05.004Z,95426.41
2023-01-05T15:09:01.986Z,95421.97
2023-01-05T15:11:58.401Z,95415.56
2023-01-05T15:15:02.217Z,95419.84
2023-01-05T15:18:05.871Z,95418.22
2023-01-05T15:21:02.636Z,95340.50
2023-01-05T15:24:18.339Z,95409.75
2023-01-05T15:27:12.555Z,95418.41
2023-01-05T15:30:03.853Z,95414.66
2023-01-05T15:32:35.710Z,95411.19
2023-01-05T15:35:11.174Z,95413.44
2023-01-05T15:37:41.519Z,95385.66
2023-01-05T15:40:29.397Z,95403.38
2023-01-05T15:43:03.076Z,95398.91
2023-01-05T15:45:33.824Z,95418.84
2023-01-05T15:48:09.369Z,95324.91
2023-01-05T15:50:45.745Z,95422.72
2023-01-05T15:53:26.177Z,95422.63
2023-01-05T15:55:54.481Z,95429.09
2023-01-05T15:58:25.851Z,95422.50
2023-01-05T16:01:08.269Z,95429.41
2023-01-05T16:03:38.180Z,95430.69
2023-01-05T16:06:10.161Z,95420.59
2023-01-05T16:08:43.690Z,95422.81
2023-01-05T16:11:15.023Z,95431.84
2023-01-05T16:13:50.392Z,95426.59
2023-01-05T16:16:50.448Z,95418.31
2023-01-05T16:19:18.855Z,95429.13
2023-01-05T16:21:54.062Z,95442.09
2023-01-05T16:24:27.516Z,95433.66
2023-01-05T16:26:56.181Z,95436.81
2023-01-05T16:29:39.804Z,95437.41
2023-01-05T16:32:29.781Z,95392.41
2023-01-05T16:35:23.560Z,95452.28
2023-01-05T16:38:16.366Z,95447.97
2023-01-05T16:41:03.531Z,95439.53
2023-01-05T16:43:36.707Z,95445.00
2023-01-05T16:46:41.154Z,95448.78
2023-01-05T16:49:41.025Z,95398.38
2023-01-05T16:52:24.389Z,95381.28
2023-01-05T16:55:19.992Z,95405.78
2023-01-05T16:57:52.293Z,95449.03
2023-01-05T17:00:39.467Z,95426.00
2023-01-05T17:03:30.780Z,95454.91
2023-01-05T17:06:00.760Z,95453.97
2023-01-05T17:08:31.967Z,95455.38
2023-01-05T17:11:03.054Z,95432.13
2023-01-05T17:13:38.863Z,95427.78
2023-01-05T17:16:08.266Z,95469.34
2023-01-05T17:18:38.207Z,95469.53
2023-01-05T17:21:07.892Z,95477.44
2023-01-05T17:23:42.315Z,95468.84
2023-01-05T17:26:13.029Z,95467.47
2023-01-05T17:28:43.082Z,95472.16
2023-01-05T17:33:41.402Z,95469.44
2023-01-05T17:36:09.898Z,95430.44
2023-01-05T17:38:38.587Z,95476.19
2023-01-05T17:41:06.969Z,95452.66
2023-01-05T17:43:35.295Z,95454.69
2023-01-05T17:46:03.775Z,95488.13
2023-01-05T17:48:32.158Z,95494.16
2023-01-05T17:51:01.970Z,95492.56
2023-01-05T17:53:30.313Z,95495.91
2023-01-05T17:55:58.573Z,95494.53
2023-01-05T17:58:27.382Z,95450.50
2023-01-05T18:00:55.907Z,95491.41
2023-01-05T18:03:24.254Z,95492.56
2023-01-05T18:05:54.239Z,95496.56
2023-01-05T18:08:23.915Z,95495.47
2023-01-05T18:10:52.230Z,95498.97
2023-01-05T18:13:22.558Z,95498.75
2023-01-05T18:15:53.298Z,95499.47
2023-01-05T18:18:22.593Z,95500.53
2023-01-05T18:20:51.812Z,95497.84
2023-01-05T18:23:21.952Z,95501.34
2023-01-05T18:25:51.618Z,95469.25
2023-01-05T18:28:19.942Z,95495.53
2023-01-05T18:30:51.542Z,95461.31
2023-01-05T18:33:20.098Z,95488.03
2023-01-05T18:35:50.662Z,95488.03
2023-01-05T18:38:22.440Z,95496.44
2023-01-05T18:40:52.100Z,95494.53
2023-01-05T18:43:20.378Z,95500.88
2023-01-05T18:45:56.166Z,95510.16
2023-01-05T18:48:24.691Z,95513.06
2023-01-05T18:50:52.996Z,95514.25
2023-01-05T18:53:23.099Z,95505.50
2023-01-05T18:55:53.222Z,95518.94
2023-01-05T18:58:21.459Z,95510.44
2023-01-05T19:00:49.679Z,95506.72
2023-01-05T19:03:18.086Z,95494.56
2023-01-05T19:05:46.432Z,95506.09
2023-01-05T19:08:15.065Z,95500.59
2023-01-05T19:10:43.418Z,95506.97
2023-01-05T19:13:13.158Z,95501.75
2023-01-05T19:15:41.436Z,95498.75
2023-01-05T19:18:10.234Z,95493.38
2023-01-05T19:20:38.999Z,95478.78
2023-01-05T19:23:07.333Z,95497.41
2023-01-05T19:25:39.158Z,95497.09
2023-01-05T19:28:07.504Z,95471.22
2023-01-05T19:30:39.443Z,95455.06
2023-01-05T19:33:07.770Z,95512.47
2023-01-05T19:35:36.385Z,95512.97
2023-01-05T19:38:04.839Z,95515.75
2023-01-05T19:40:33.164Z,95468.91
2023-01-05T19:43:01.536Z,95518.22
2023-01-05T19:45:29.866Z,95514.91
2023-01-05T19:48:00.575Z,95418.78
2023-01-05T19:50:32.647Z,95527.88
2023-01-05T19:53:00.999Z,95497.66
2023-01-05T19:55:29.586Z,95528.16
2023-01-05T19:58:07.462Z,95527.88
2023-01-05T20:00:36.178Z,95514.50
2023-01-05T20:03:07.184Z,95527.75
2023-01-05T20:05:35.664Z,95530.09
2023-01-05T20:08:10.950Z,95534.91
2023-01-05T20:10:42.159Z,95539.78
2023-01-05T20:13:14.334Z,95550.53
2023-01-05T20:15:42.777Z,95554.75
2023-01-05T20:18:16.484Z,95555.69
2023-01-05T20:20:45.448Z,95554.25
2023-01-05T20:23:14.974Z,95554.16
2023-01-05T20:25:43.829Z,95550.28
2023-01-05T20:28:12.954Z,95551.50
2023-01-05T20:30:41.299Z,95546.91
2023-01-05T20:33:09.562Z,95553.94
2023-01-05T20:35:42.452Z,95513.34
2023-01-05T20:38:10.722Z,95507.72
2023-01-05T20:40:39.004Z,95527.16
2023-01-05T20:43:07.415Z,95524.63
2023-01-05T20:45:35.888Z,95539.03
2023-01-05T20:48:06.082Z,95550.50
2023-01-05T20:50:34.442Z,95535.16
2023-01-05T20:53:04.338Z,95515.38
2023-01-05T20:55:32.697Z,95526.97
2023-01-05T20:58:01.031Z,95544.78
2023-01-05T21:00:29.315Z,95548.13
2023-01-05T21:02:57.693Z,95547.78
2023-01-05T21:05:26.010Z,95554.88
2023-01-05T21:07:54.299Z,95565.25
2023-01-05T21:10:24.024Z,95577.31
2023-01-05T21:12:52.435Z,95572.81
2023-01-05T21:15:20.886Z,95569.91
2023-01-05T21:17:49.124Z,95553.41
2023-01-05T21:20:17.611Z,95565.06
2023-01-05T21:22:45.933Z,95551.56
2023-01-05T21:25:14.641Z,95558.22
2023-01-05T21:27:44.402Z,95492.31
2023-01-05T21:30:13.761Z,95556.94
2023-01-05T21:32:42.465Z,95562.41
2023-01-05T21:35:11.275Z,95559.28
2023-01-05T21:37:39.549Z,95562.47
2023-01-05T21:40:09.356Z,95568.63
2023-01-05T21:42:45.377Z,95559.22
2023-01-05T21:45:15.193Z,95560.00
2023-01-05T21:47:43.523Z,95575.75
2023-01-05T21:50:34.364Z,95572.81
2023-01-05T21:53:16.882Z,95582.25
2023-01-05T21:56:22.889Z,95585.06
2023-01-05T21:58:51.243Z,95591.94
2023-01-05T22:01:21.131Z,95589.63
2023-01-05T22:03:50.203Z,95590.81
2023-01-05T22:06:18.509Z,95567.19
2023-01-05T22:08:47.108Z,95593.53
2023-01-05T22:11:15.486Z,95583.63
2023-01-05T22:13:43.691Z,95588.63
2023-01-05T22:16:12.177Z,95581.72
2023-01-05T22:18:41.934Z,95586.25
2023-01-05T22:21:11.272Z,95590.31
2023-01-05T22:23:39.751Z,95600.47
2023-01-05T22:26:10.366Z,95586.28
2023-01-05T22:28:41.937Z,95586.66
2023-01-05T22:31:12.209Z,95574.47
2023-01-05T22:33:44.188Z,95580.75
2023-01-05T22:36:14.489Z,95559.03
2023-01-05T22:38:44.449Z,95588.19
2023-01-05T22:41:15.349Z,95586.72
2023-01-05T22:43:44.630Z,95593.75
2023-01-05T22:46:15.045Z,95601.44
2023-01-05T22:48:49.361Z,95525.16
2023-01-05T22:51:19.999Z,95610.78
2023-01-05T22:53:49.447Z,95586.75
2023-01-05T22:56:19.138Z,95540.53
2023-01-05T22:58:47.541Z,95580.25
2023-01-05T23:01:21.095Z,95588.56
2023-01-05T23:03:51.479Z,95592.00
2023-01-05T23:06:20.809Z,95589.63
2023-01-05T23:08:50.316Z,95533.41
2023-01-05T23:11:20.805Z,95580.97
2023-01-05T23:13:49.971Z,95569.72
2023-01-05T23:16:18.664Z,95580.38
2023-01-05T23:18:48.478Z,95586.16
2023-01-05T23:21:19.334Z,95595.84
2023-01-05T23:23:48.049Z,95600.16
2023-01-05T23:26:17.587Z,95604.94
2023-01-05T23:28:46.225Z,95525.97
2023-01-05T23:31:16.490Z,95605.31
2023-01-05T23:33:45.543Z,95602.53
2023-01-05T23:36:15.737Z,95601.25
2023-01-05T23:38:46.321Z,95599.16
2023-01-05T23:41:16.205Z,95587.91
2023-01-05T23:43:46.598Z,95583.59
2023-01-05T23:46:17.171Z,95536.75
2023-01-05T23:48:45.646Z,95566.22
2023-01-05T23:51:16.541Z,95462.97
2023-01-05T23:53:50.124Z,95559.13
2023-01-05T23:56:20.888Z,95557.16
2023-01-05T23:58:50.112Z,95566.44
